createdAt,value
2019-05-25T00:02:10.135Z,18.20
2019-05-25T00:04:37.512Z,18.40
2019-05-25T00:07:04.809Z,18.30
2019-05-25T00:09:32.136Z,18.30
2019-05-25T00:11:59.852Z,18.40
2019-05-25T00:14:27.099Z,18.30
2019-05-25T00:16:54.356Z,18.30
2019-05-25T00:19:21.583Z,18.30
2019-05-25T00:21:48.995Z,18.40
2019-05-25T00:24:16.346Z,18.40
2019-05-25T00:26:43.599Z,18.30
2019-05-25T00:29:10.823Z,18.30
2019-05-25T00:31:38.042Z,18.30
2019-05-25T00:34:05.339Z,18.30
2019-05-25T00:36:32.643Z,18.30
2019-05-25T00:39:00.043Z,18.30
2019-05-25T00:41:27.380Z,18.20
2019-05-25T00:43:54.667Z,18.20
2019-05-25T00:46:22.004Z,18.10
2019-05-25T00:48:49.339Z,18.10
2019-05-25T00:51:16.614Z,18.10
2019-05-25T00:53:43.985Z,18.10
2019-05-25T00:56:11.201Z,18.10
2019-05-25T00:58:38.568Z,18.00
2019-05-25T01:01:06.589Z,18.00
2019-05-25T01:03:34.364Z,17.90
2019-05-25T01:06:02.120Z,17.80
2019-05-25T01:08:29.809Z,17.80
2019-05-25T01:10:57.808Z,17.70
2019-05-25T01:13:25.465Z,17.70
2019-05-25T01:15:53.164Z,17.80
2019-05-25T01:18:20.828Z,17.70
2019-05-25T01:20:48.452Z,17.60
2019-05-25T01:23:15.807Z,17.70
2019-05-25T01:25:43.127Z,17.60
2019-05-25T01:28:10.398Z,17.60
2019-05-25T01:30:37.632Z,17.60
2019-05-25T01:33:04.899Z,17.50
2019-05-25T01:35:32.179Z,17.50
2019-05-25T01:37:59.412Z,17.60
2019-05-25T01:40:26.664Z,17.60
2019-05-25T01:42:53.903Z,17.50
2019-05-25T01:45:21.256Z,17.50
2019-05-25T01:47:48.631Z,17.50
2019-05-25T01:50:16.579Z,17.40
2019-05-25T01:52:43.814Z,17.40
2019-05-25T01:55:11.209Z,17.30
2019-05-25T01:57:38.513Z,17.40
2019-05-25T02:00:07.127Z,17.40
2019-05-25T02:02:34.515Z,17.30
2019-05-25T02:05:01.924Z,17.30
2019-05-25T02:07:29.231Z,17.40
2019-05-25T02:09:56.488Z,17.30
2019-05-25T02:12:23.747Z,17.20
2019-05-25T02:14:51.086Z,17.20
2019-05-25T02:17:18.384Z,17.20
2019-05-25T02:19:45.683Z,17.20
2019-05-25T02:22:13.019Z,17.10
2019-05-25T02:24:40.257Z,17.10
2019-05-25T02:27:07.503Z,17.10
2019-05-25T02:29:34.760Z,17.20
2019-05-25T02:32:02.040Z,17.10
2019-05-25T02:34:29.271Z,17.10
2019-05-25T02:36:56.521Z,17.00
2019-05-25T02:39:23.782Z,16.90
2019-05-25T02:41:51.037Z,17.00
2019-05-25T02:44:18.334Z,17.10
2019-05-25T02:46:45.555Z,17.00
2019-05-25T02:49:12.779Z,16.90
2019-05-25T02:51:40.039Z,16.90
2019-05-25T02:54:07.271Z,17.00
2019-05-25T02:56:34.558Z,16.90
2019-05-25T02:59:01.795Z,16.80
2019-05-25T03:01:29.055Z,16.90
2019-05-25T03:03:56.294Z,16.80
2019-05-25T03:06:23.758Z,16.80
2019-05-25T03:08:52.915Z,16.90
2019-05-25T03:11:20.555Z,16.80
2019-05-25T03:13:47.900Z,16.80
2019-05-25T03:16:15.135Z,16.70
2019-05-25T03:18:42.397Z,16.70
2019-05-25T03:21:09.667Z,16.70
2019-05-25T03:23:37.047Z,16.70
2019-05-25T03:26:04.530Z,16.60
2019-05-25T03:28:31.884Z,16.50
2019-05-25T03:30:59.134Z,16.60
2019-05-25T03:33:26.468Z,16.50
2019-05-25T03:35:53.834Z,16.60
2019-05-25T03:38:21.162Z,16.60
2019-05-25T03:40:48.496Z,16.60
2019-05-25T03:43:15.751Z,16.60
2019-05-25T03:45:43.046Z,16.50
2019-05-25T03:48:10.265Z,16.50
2019-05-25T03:50:37.533Z,16.50
2019-05-25T03:53:04.803Z,16.50
2019-05-25T03:55:32.047Z,16.50
2019-05-25T03:57:59.336Z,16.50
2019-05-25T04:00:32.279Z,16.60
2019-05-25T04:02:59.547Z,16.60
2019-05-25T04:05:26.830Z,16.60
2019-05-25T04:07:54.059Z,16.50
2019-05-25T04:10:21.296Z,16.50
2019-05-25T04:12:48.580Z,16.50
2019-05-25T04:15:16.007Z,16.50
2019-05-25T04:17:43.228Z,16.70
2019-05-25T04:20:11.123Z,16.50
2019-05-25T04:22:38.355Z,16.50
2019-05-25T04:25:05.632Z,16.60
2019-05-25T04:27:33.090Z,16.60
2019-05-25T04:30:00.330Z,16.60
2019-05-25T04:32:27.556Z,16.60
2019-05-25T04:34:54.823Z,16.60
2019-05-25T04:37:22.059Z,16.60
2019-05-25T04:39:49.319Z,16.60
2019-05-25T04:42:16.564Z,16.60
2019-05-25T04:44:43.861Z,16.60
2019-05-25T04:47:26.175Z,16.60
2019-05-25T04:49:40.393Z,16.60
2019-05-25T04:52:07.623Z,16.50
2019-05-25T04:54:34.850Z,16.60
2019-05-25T04:57:02.284Z,16.60
2019-05-25T04:59:29.572Z,16.50
2019-05-25T05:01:56.807Z,16.60
2019-05-25T05:04:24.056Z,16.50
2019-05-25T05:06:51.343Z,16.60
2019-05-25T05:09:18.656Z,16.60
2019-05-25T05:11:45.917Z,16.80
2019-05-25T05:14:13.140Z,16.80
2019-05-25T05:16:40.470Z,16.70
2019-05-25T05:19:07.831Z,16.50
2019-05-25T05:21:35.181Z,16.50
2019-05-25T05:24:02.395Z,16.50
2019-05-25T05:26:29.668Z,16.60
2019-05-25T05:28:56.971Z,16.40
2019-05-25T05:31:24.311Z,16.60
2019-05-25T05:33:51.592Z,16.50
2019-05-25T05:36:20.299Z,16.50
2019-05-25T05:38:47.539Z,16.50
2019-05-25T05:41:16.957Z,16.40
2019-05-25T05:43:46.359Z,16.60
2019-05-25T05:46:16.231Z,16.70
2019-05-25T05:48:47.242Z,16.70
2019-05-25T05:51:18.699Z,16.80
2019-05-25T05:53:46.468Z,16.80
2019-05-25T05:56:13.815Z,16.70
2019-05-25T05:58:41.155Z,16.70
2019-05-25T06:01:08.402Z,16.80
2019-05-25T06:03:35.655Z,16.80
2019-05-25T06:06:02.987Z,16.80
2019-05-25T06:08:30.273Z,16.80
2019-05-25T06:10:57.532Z,16.90
2019-05-25T06:13:24.768Z,16.70
2019-05-25T06:15:55.247Z,16.90
2019-05-25T06:18:21.171Z,16.80
2019-05-25T06:20:48.403Z,17.00
2019-05-25T06:23:15.628Z,17.00
2019-05-25T06:25:43.024Z,17.00
2019-05-25T06:28:11.724Z,17.10
2019-05-25T06:30:40.599Z,17.20
2019-05-25T06:33:07.982Z,17.50
2019-05-25T06:35:35.629Z,17.60
2019-05-25T06:38:04.384Z,17.80
2019-05-25T06:40:31.731Z,17.90
2019-05-25T06:43:01.723Z,18.00
2019-05-25T06:45:29.096Z,18.10
2019-05-25T06:47:56.569Z,17.70
2019-05-25T06:50:23.864Z,17.50
2019-05-25T06:53:04.405Z,17.40
2019-05-25T06:55:39.584Z,17.40
2019-05-25T06:58:06.903Z,17.50
2019-05-25T07:00:34.568Z,17.60
2019-05-25T07:03:02.025Z,17.50
2019-05-25T07:05:29.426Z,17.70
2019-05-25T07:07:56.679Z,17.60
2019-05-25T07:10:23.931Z,17.80
2019-05-25T07:12:51.414Z,18.10
2019-05-25T07:15:19.135Z,18.20
2019-05-25T07:17:46.515Z,18.40
2019-05-25T07:20:13.772Z,18.40
2019-05-25T07:22:41.052Z,18.50
2019-05-25T07:25:09.402Z,18.70
2019-05-25T07:27:36.768Z,18.50
2019-05-25T07:30:04.365Z,18.50
2019-05-25T07:32:31.749Z,18.40
2019-05-25T07:34:59.072Z,18.70
2019-05-25T07:37:26.304Z,18.90
2019-05-25T07:39:53.631Z,19.20
2019-05-25T07:42:21.056Z,19.20
2019-05-25T07:44:48.393Z,19.30
2019-05-25T07:47:15.639Z,19.20
2019-05-25T07:49:42.893Z,19.30
2019-05-25T07:52:10.148Z,19.50
2019-05-25T07:54:37.423Z,19.80
2019-05-25T07:57:04.956Z,20.00
2019-05-25T07:59:32.291Z,20.10
2019-05-25T08:01:59.531Z,20.30
2019-05-25T08:04:27.071Z,20.50
2019-05-25T08:06:54.655Z,20.20
2019-05-25T08:09:23.110Z,20.20
2019-05-25T08:11:50.374Z,20.20
2019-05-25T08:14:17.715Z,20.50
2019-05-25T08:16:45.000Z,20.70
2019-05-25T08:19:12.240Z,21.00
2019-05-25T08:21:39.500Z,21.10
2019-05-25T08:24:06.782Z,21.40
2019-05-25T08:26:34.024Z,21.50
2019-05-25T08:29:01.283Z,21.80
2019-05-25T08:31:28.529Z,22.10
2019-05-25T08:33:55.828Z,21.90
2019-05-25T08:36:23.084Z,21.90
2019-05-25T08:38:50.340Z,22.00
2019-05-25T08:41:17.611Z,22.00
2019-05-25T08:43:45.099Z,22.10
2019-05-25T08:46:12.458Z,21.90
2019-05-25T08:48:39.712Z,21.70
2019-05-25T08:51:06.972Z,21.70
2019-05-25T08:53:41.547Z,21.70
2019-05-25T08:56:03.780Z,21.60
2019-05-25T08:58:31.211Z,21.70
2019-05-25T09:01:01.088Z,21.80
2019-05-25T09:03:28.464Z,22.10
2019-05-25T09:05:56.501Z,22.20
2019-05-25T09:08:24.208Z,22.20
2019-05-25T09:10:52.806Z,22.20
2019-05-25T09:13:20.163Z,22.50
2019-05-25T09:15:49.284Z,22.80
2019-05-25T09:18:16.771Z,22.90
2019-05-25T09:20:44.143Z,22.70
2019-05-25T09:23:12.519Z,23.10
2019-05-25T09:25:39.980Z,23.20
2019-05-25T09:28:07.340Z,23.10
2019-05-25T09:30:34.760Z,23.20
2019-05-25T09:33:02.024Z,23.40
2019-05-25T09:35:31.418Z,23.50
2019-05-25T09:37:58.800Z,23.50
2019-05-25T09:40:26.061Z,23.80
2019-05-25T09:42:53.354Z,24.00
2019-05-25T09:45:20.668Z,24.20
2019-05-25T09:47:47.918Z,24.30
2019-05-25T09:50:15.207Z,24.30
2019-05-25T09:52:42.502Z,24.30
2019-05-25T09:55:11.862Z,24.50
2019-05-25T09:57:41.562Z,24.60
2019-05-25T10:00:09.122Z,24.40
2019-05-25T10:02:36.388Z,24.90
2019-05-25T10:05:04.577Z,24.80
2019-05-25T10:07:31.819Z,24.90
2019-05-25T10:09:59.199Z,24.90
2019-05-25T10:12:26.486Z,24.60
2019-05-25T10:14:53.855Z,24.90
2019-05-25T10:17:21.230Z,25.10
2019-05-25T10:19:48.534Z,25.10
2019-05-25T10:22:16.102Z,24.60
2019-05-25T10:24:43.443Z,24.90
2019-05-25T10:27:10.786Z,25.20
2019-05-25T10:29:38.105Z,25.10
2019-05-25T10:32:05.476Z,25.10
2019-05-25T10:34:32.877Z,24.90
2019-05-25T10:37:00.215Z,24.80
2019-05-25T10:39:27.802Z,25.00
2019-05-25T10:41:55.175Z,25.50
2019-05-25T10:44:22.419Z,25.30
2019-05-25T10:46:49.697Z,25.40
2019-05-25T10:49:17.224Z,25.40
2019-05-25T10:51:44.497Z,25.60
2019-05-25T10:54:11.739Z,25.20
2019-05-25T10:56:39.629Z,25.00
2019-05-25T10:59:07.001Z,25.60
2019-05-25T11:01:34.242Z,24.80
2019-05-25T11:04:03.709Z,25.10
2019-05-25T11:06:34.567Z,25.70
2019-05-25T11:09:00.190Z,26.20
2019-05-25T11:11:27.528Z,26.00
2019-05-25T11:13:54.985Z,26.20
2019-05-25T11:16:22.395Z,26.60
2019-05-25T11:18:51.141Z,26.70
2019-05-25T11:21:18.551Z,26.60
2019-05-25T11:23:46.043Z,26.70
2019-05-25T11:26:13.279Z,26.90
2019-05-25T11:28:40.527Z,27.00
2019-05-25T11:31:08.238Z,26.70
2019-05-25T11:33:38.796Z,25.90
2019-05-25T11:36:06.185Z,25.50
2019-05-25T11:38:36.405Z,25.20
2019-05-25T11:41:05.507Z,25.40
2019-05-25T11:43:32.846Z,26.00
2019-05-25T11:46:00.132Z,26.30
2019-05-25T11:48:27.382Z,27.00
2019-05-25T11:50:54.678Z,27.70
2019-05-25T11:53:22.195Z,27.90
2019-05-25T11:55:49.483Z,27.50
2019-05-25T11:58:17.076Z,26.60
2019-05-25T12:00:44.761Z,26.70
2019-05-25T12:03:12.104Z,28.00
2019-05-25T12:05:39.383Z,29.20
2019-05-25T12:08:06.662Z,29.90
2019-05-25T12:10:33.903Z,29.30
2019-05-25T12:13:01.187Z,28.50
2019-05-25T12:15:28.457Z,28.20
2019-05-25T12:17:55.980Z,28.30
2019-05-25T12:20:23.360Z,28.80
2019-05-25T12:22:51.160Z,29.10
2019-05-25T12:25:18.523Z,29.10
2019-05-25T12:27:49.020Z,29.00
2019-05-25T12:30:16.345Z,29.20
2019-05-25T12:32:43.766Z,29.30
2019-05-25T12:35:11.081Z,29.70
2019-05-25T12:37:38.307Z,30.40
2019-05-25T12:40:05.603Z,30.80
2019-05-25T12:42:33.189Z,30.90
2019-05-25T12:45:00.598Z,31.50
2019-05-25T12:47:27.951Z,31.70
2019-05-25T12:49:55.379Z,30.70
2019-05-25T12:52:22.686Z,30.20
2019-05-25T12:54:51.115Z,30.50
2019-05-25T12:57:18.911Z,31.20
2019-05-25T12:59:46.247Z,30.80
2019-05-25T13:02:13.535Z,30.00
2019-05-25T13:04:40.884Z,30.50
2019-05-25T13:07:08.314Z,30.40
2019-05-25T13:09:35.710Z,30.80
2019-05-25T13:12:03.008Z,31.00
2019-05-25T13:14:30.281Z,31.00
2019-05-25T13:16:57.837Z,30.80
2019-05-25T13:19:25.180Z,30.50
2019-05-25T13:21:52.792Z,30.60
2019-05-25T13:24:20.585Z,30.30
2019-05-25T13:26:48.003Z,30.30
2019-05-25T13:29:15.273Z,30.00
2019-05-25T13:31:42.581Z,30.30
2019-05-25T13:34:09.896Z,30.50
2019-05-25T13:36:37.294Z,30.70
2019-05-25T13:39:05.758Z,30.90
2019-05-25T13:41:33.026Z,31.10
2019-05-25T13:44:00.283Z,31.00
2019-05-25T13:46:27.581Z,31.20
2019-05-25T13:48:55.599Z,31.30
2019-05-25T13:51:23.002Z,31.40
2019-05-25T13:53:50.227Z,31.30
2019-05-25T13:56:17.580Z,31.30
2019-05-25T13:58:44.847Z,31.00
2019-05-25T14:01:27.409Z,31.30
2019-05-25T14:03:41.327Z,31.00
2019-05-25T14:06:08.713Z,30.80
2019-05-25T14:08:35.933Z,30.80
2019-05-25T14:11:03.298Z,30.70
2019-05-25T14:13:30.628Z,30.60
2019-05-25T14:16:06.641Z,30.30
2019-05-25T14:18:27.082Z,30.30
2019-05-25T14:20:54.350Z,30.60
2019-05-25T14:23:21.618Z,30.30
2019-05-25T14:25:48.926Z,30.20
2019-05-25T14:28:16.306Z,30.00
2019-05-25T14:30:43.672Z,30.30
2019-05-25T14:33:10.908Z,30.10
2019-05-25T14:35:44.144Z,30.10
2019-05-25T14:38:11.459Z,29.80
2019-05-25T14:40:38.721Z,29.60
2019-05-25T14:43:06.015Z,29.70
2019-05-25T14:45:33.255Z,29.70
2019-05-25T14:48:00.555Z,30.60
2019-05-25T14:50:27.860Z,31.30
2019-05-25T14:52:55.103Z,32.30
2019-05-25T14:55:22.393Z,32.40
2019-05-25T14:57:49.700Z,32.40
2019-05-25T15:00:18.174Z,32.00
2019-05-25T15:02:45.525Z,32.20
2019-05-25T15:05:12.879Z,30.90
2019-05-25T15:07:40.138Z,29.70
2019-05-25T15:10:07.544Z,28.40
2019-05-25T15:12:34.864Z,27.50
2019-05-25T15:15:02.150Z,27.10
2019-05-25T15:17:29.390Z,26.40
2019-05-25T15:19:56.732Z,25.90
2019-05-25T15:22:24.087Z,25.40
2019-05-25T15:24:51.451Z,25.00
2019-05-25T15:27:18.744Z,24.90
2019-05-25T15:29:46.067Z,24.60
2019-05-25T15:32:20.170Z,24.40
2019-05-25T15:34:42.735Z,24.10
2019-05-25T15:37:20.176Z,23.90
2019-05-25T15:39:47.401Z,23.80
2019-05-25T15:42:14.688Z,23.90
2019-05-25T15:44:42.076Z,23.70
2019-05-25T15:47:09.470Z,23.80
2019-05-25T15:49:36.809Z,23.70
2019-05-25T15:52:04.329Z,23.70
2019-05-25T15:54:31.595Z,23.60
2019-05-25T15:56:58.869Z,23.50
2019-05-25T15:59:26.269Z,23.40
2019-05-25T16:01:53.919Z,23.30
2019-05-25T16:04:21.327Z,23.40
2019-05-25T16:06:48.569Z,23.30
2019-05-25T16:09:15.893Z,23.20
2019-05-25T16:11:43.215Z,23.10
2019-05-25T16:14:10.495Z,22.90
2019-05-25T16:16:37.754Z,22.60
2019-05-25T16:19:04.990Z,22.60
2019-05-25T16:21:32.244Z,22.80
2019-05-25T16:23:59.474Z,22.80
2019-05-25T16:26:26.727Z,22.60
2019-05-25T16:28:53.955Z,22.40
2019-05-25T16:31:21.210Z,22.50
2019-05-25T16:33:48.502Z,22.40
2019-05-25T16:36:15.744Z,22.40
2019-05-25T16:38:43.022Z,22.20
2019-05-25T16:41:10.260Z,22.20
2019-05-25T16:43:37.555Z,22.30
2019-05-25T16:46:04.784Z,22.40
2019-05-25T16:48:32.020Z,22.70
2019-05-25T16:50:59.264Z,22.90
2019-05-25T16:53:26.498Z,23.00
2019-05-25T16:55:54.742Z,22.90
2019-05-25T16:58:22.312Z,23.00
2019-05-25T17:00:49.568Z,23.00
2019-05-25T17:03:27.745Z,23.00
2019-05-25T17:05:45.991Z,22.90
2019-05-25T17:08:13.235Z,22.80
2019-05-25T17:10:40.477Z,22.80
2019-05-25T17:13:07.783Z,22.70
2019-05-25T17:15:35.043Z,22.60
2019-05-25T17:18:04.778Z,22.60
2019-05-25T17:20:31.411Z,22.70
2019-05-25T17:22:58.655Z,22.60
2019-05-25T17:25:25.932Z,22.50
2019-05-25T17:27:53.175Z,22.50
2019-05-25T17:30:34.835Z,22.40
2019-05-25T17:33:02.106Z,22.20
2019-05-25T17:35:29.343Z,22.20
2019-05-25T17:37:56.593Z,22.20
2019-05-25T17:40:23.816Z,22.10
2019-05-25T17:42:51.066Z,22.10
2019-05-25T17:45:18.318Z,22.00
2019-05-25T17:47:45.635Z,21.90
2019-05-25T17:50:12.980Z,21.80
2019-05-25T17:52:40.236Z,21.60
2019-05-25T17:55:07.768Z,21.50
2019-05-25T17:57:35.100Z,21.40
2019-05-25T18:00:03.078Z,21.40
2019-05-25T18:02:30.304Z,21.30
2019-05-25T18:04:57.561Z,21.40
2019-05-25T18:07:24.792Z,21.40
2019-05-25T18:09:52.053Z,21.20
2019-05-25T18:12:19.295Z,21.30
2019-05-25T18:14:46.586Z,21.20
2019-05-25T18:17:13.953Z,21.20
2019-05-25T18:19:41.193Z,21.10
2019-05-25T18:22:08.493Z,21.00
2019-05-25T18:24:35.833Z,21.10
2019-05-25T18:27:03.165Z,21.00
2019-05-25T18:29:30.491Z,20.90
2019-05-25T18:31:57.768Z,20.90
2019-05-25T18:34:25.016Z,20.90
2019-05-25T18:36:52.352Z,20.80
2019-05-25T18:39:19.687Z,20.90
2019-05-25T18:41:46.995Z,20.80
2019-05-25T18:44:14.320Z,20.80
2019-05-25T18:46:41.794Z,20.80
2019-05-25T18:49:09.126Z,20.70
2019-05-25T18:51:36.377Z,20.70
2019-05-25T18:54:03.676Z,20.60
2019-05-25T18:56:30.943Z,20.60
2019-05-25T18:58:58.257Z,20.50
2019-05-25T19:01:25.575Z,20.50
2019-05-25T19:03:52.902Z,20.40
2019-05-25T19:06:20.189Z,20.40
2019-05-25T19:08:50.322Z,20.40
2019-05-25T19:11:17.642Z,20.30
2019-05-25T19:13:44.945Z,20.20
2019-05-25T19:16:12.255Z,20.20
2019-05-25T19:18:39.516Z,20.20
2019-05-25T19:21:06.741Z,20.10
2019-05-25T19:23:34.052Z,20.10
2019-05-25T19:26:01.331Z,20.20
2019-05-25T19:28:28.760Z,20.00
2019-05-25T19:30:56.172Z,19.90
2019-05-25T19:33:25.408Z,19.80
2019-05-25T19:35:54.412Z,20.00
2019-05-25T19:38:22.891Z,19.80
2019-05-25T19:40:50.738Z,19.80
2019-05-25T19:43:17.960Z,19.70
2019-05-25T19:45:47.336Z,19.70
2019-05-25T19:48:14.411Z,19.60
2019-05-25T19:50:41.833Z,19.70
2019-05-25T19:53:09.172Z,19.60
2019-05-25T19:55:36.493Z,19.70
2019-05-25T19:58:03.927Z,19.60
2019-05-25T20:00:31.309Z,19.60
2019-05-25T20:02:58.589Z,19.60
2019-05-25T20:05:25.950Z,19.50
2019-05-25T20:07:54.235Z,19.60
2019-05-25T20:10:22.112Z,19.60
2019-05-25T20:12:49.392Z,19.50
2019-05-25T20:15:17.227Z,19.50
2019-05-25T20:17:44.479Z,19.40
2019-05-25T20:20:12.224Z,19.50
2019-05-25T20:22:39.484Z,19.50
2019-05-25T20:25:07.684Z,19.40
2019-05-25T20:27:35.036Z,19.30
2019-05-25T20:30:02.546Z,19.40
2019-05-25T20:32:29.917Z,19.40
2019-05-25T20:34:57.156Z,19.40
2019-05-25T20:37:24.432Z,19.30
2019-05-25T20:39:51.683Z,19.20
2019-05-25T20:42:18.941Z,19.20
2019-05-25T20:44:46.213Z,19.20
2019-05-25T20:47:13.455Z,19.20
2019-05-25T20:49:40.735Z,19.20
2019-05-25T20:52:07.987Z,19.10
2019-05-25T20:54:35.402Z,19.10
2019-05-25T20:57:02.872Z,19.10
2019-05-25T20:59:30.200Z,19.10
2019-05-25T21:01:57.524Z,19.20
2019-05-25T21:04:24.811Z,19.10
2019-05-25T21:06:52.075Z,19.00
2019-05-25T21:09:19.447Z,19.00
2019-05-25T21:11:46.779Z,18.90
2019-05-25T21:14:14.044Z,18.70
2019-05-25T21:16:41.294Z,18.90
2019-05-25T21:19:08.566Z,18.80
2019-05-25T21:21:35.941Z,18.80
2019-05-25T21:24:03.755Z,18.70
2019-05-25T21:26:31.003Z,18.80
2019-05-25T21:28:58.407Z,18.70
2019-05-25T21:31:25.644Z,18.60
2019-05-25T21:33:52.919Z,18.80
2019-05-25T21:36:20.246Z,18.60
2019-05-25T21:38:47.553Z,18.60
2019-05-25T21:41:14.823Z,18.70
2019-05-25T21:43:42.120Z,18.60
2019-05-25T21:46:09.432Z,18.50
2019-05-25T21:48:36.680Z,18.40
2019-05-25T21:51:03.975Z,18.50
2019-05-25T21:53:31.246Z,18.50
2019-05-25T21:55:58.495Z,18.50
2019-05-25T21:58:25.767Z,18.40
2019-05-25T22:00:52.995Z,18.50
2019-05-25T22:03:20.322Z,18.40
2019-05-25T22:05:47.715Z,18.40
2019-05-25T22:08:14.983Z,18.20
2019-05-25T22:10:42.232Z,18.20
2019-05-25T22:13:23.820Z,18.20
2019-05-25T22:15:38.685Z,18.20
2019-05-25T22:18:06.048Z,18.10
2019-05-25T22:20:33.378Z,18.10
2019-05-25T22:23:00.652Z,18.30
2019-05-25T22:25:27.895Z,18.20
2019-05-25T22:27:55.198Z,18.10
2019-05-25T22:30:22.441Z,18.10
2019-05-25T22:32:49.713Z,18.10
2019-05-25T22:35:17.061Z,18.00
2019-05-25T22:37:44.304Z,18.10
2019-05-25T22:40:11.848Z,17.90
2019-05-25T22:42:39.092Z,18.00
2019-05-25T22:45:06.524Z,17.70
2019-05-25T22:47:33.811Z,17.70
2019-05-25T22:50:01.069Z,17.70
2019-05-25T22:52:28.387Z,17.70
2019-05-25T22:54:55.626Z,17.70
2019-05-25T22:57:22.883Z,17.60
2019-05-25T22:59:50.161Z,17.60
2019-05-25T23:02:17.460Z,17.70
2019-05-25T23:04:44.723Z,17.90
2019-05-25T23:07:12.052Z,17.70
2019-05-25T23:09:39.455Z,17.50
2019-05-25T23:12:06.671Z,17.70
2019-05-25T23:14:33.967Z,17.50
2019-05-25T23:17:01.320Z,17.70
2019-05-25T23:19:28.659Z,17.60
2019-05-25T23:21:55.943Z,17.50
2019-05-25T23:24:23.193Z,17.40
2019-05-25T23:26:50.523Z,17.50
2019-05-25T23:29:20.864Z,17.30
2019-05-25T23:31:51.054Z,17.30
2019-05-25T23:34:23.688Z,17.30
2019-05-25T23:36:52.600Z,17.30
2019-05-25T23:39:26.373Z,17.20
2019-05-25T23:41:55.909Z,17.10
2019-05-25T23:44:23.497Z,17.00
2019-05-25T23:46:52.288Z,16.90
2019-05-25T23:49:19.577Z,16.80
2019-05-25T23:51:46.882Z,16.90
2019-05-25T23:54:14.148Z,16.90
2019-05-25T23:56:41.395Z,16.80
2019-05-25T23:59:08.667Z,16.80
